createdAt,value
2023-02-23T00:03:16.536Z,12.4
2023-02-23T00:09:14.028Z,12.5
2023-02-23T00:14:47.059Z,12.5
2023-02-23T00:20:47.370Z,12.5
2023-02-23T00:26:44.771Z,12.5
2023-02-23T00:32:30.374Z,12.5
2023-02-23T00:38:51.422Z,12.4
2023-02-23T00:44:35.677Z,12.4
2023-02-23T00:50:19.651Z,12.3
2023-02-23T00:55:57.043Z,12.2
2023-02-23T01:01:33.693Z,12.2
2023-02-23T01:07:42.761Z,12.2
2023-02-23T01:13:15.865Z,12.1
2023-02-23T01:18:55.031Z,12.1
2023-02-23T01:24:30.137Z,12.1
2023-02-23T01:30:05.338Z,12.1
2023-02-23T01:35:52.189Z,12.1
2023-02-23T01:41:32.589Z,12.1
2023-02-23T01:47:08.818Z,12.1
2023-02-23T01:53:01.009Z,12.1
2023-02-23T01:58:43.507Z,12.1
2023-02-23T02:04:18.402Z,12
2023-02-23T02:09:53.889Z,12
2023-02-23T02:15:50.230Z,12
2023-02-23T02:21:26.055Z,11.9
2023-02-23T02:27:02.041Z,11.9
2023-02-23T02:32:37.349Z,11.9
2023-02-23T02:38:15.671Z,11.9
2023-02-23T02:43:52.419Z,11.8
2023-02-23T02:49:30.722Z,11.8
2023-02-23T02:55:07.313Z,11.7
2023-02-23T03:00:43.512Z,11.7
2023-02-23T03:06:40.157Z,11.7
2023-02-23T03:12:13.499Z,11.7
2023-02-23T03:17:49.068Z,11.8
2023-02-23T03:23:30.915Z,11.8
2023-02-23T03:29:09.789Z,11.8
2023-02-23T03:34:45.854Z,11.7
2023-02-23T03:40:24.555Z,11.7
2023-02-23T03:46:10.947Z,11.7
2023-02-23T03:52:12.518Z,11.7
2023-02-23T03:57:47.605Z,11.7
2023-02-23T04:03:39.368Z,11.8
2023-02-23T04:09:15.555Z,11.7
2023-02-23T04:14:50.470Z,11.8
2023-02-23T04:20:26.208Z,11.8
2023-02-23T04:26:28.332Z,11.8
2023-02-23T04:32:04.837Z,11.8
2023-02-23T04:38:01.876Z,11.6
2023-02-23T04:43:59.290Z,11.5
2023-02-23T04:49:41.807Z,11.3
2023-02-23T04:55:16.994Z,11.1
2023-02-23T05:00:52.792Z,11
2023-02-23T05:07:09.075Z,11
2023-02-23T05:12:41.953Z,10.8
2023-02-23T05:18:18.701Z,10.8
2023-02-23T05:23:55.459Z,10.7
2023-02-23T05:29:37.696Z,10.5
2023-02-23T05:35:13.468Z,10.5
2023-02-23T05:40:52.073Z,10.4
2023-02-23T05:46:35.587Z,10.3
2023-02-23T05:52:13.905Z,10.2
2023-02-23T05:57:55.672Z,10.1
2023-02-23T06:03:34.522Z,10.1
2023-02-23T06:09:10.018Z,10.1
2023-02-23T06:14:45.202Z,10
2023-02-23T06:20:28.811Z,9.9
2023-02-23T06:26:05.051Z,9.9
2023-02-23T06:31:40.088Z,9.8
2023-02-23T06:37:17.159Z,9.7
2023-02-23T06:43:00.857Z,9.7
2023-02-23T06:48:37.254Z,9.5
2023-02-23T06:54:12.443Z,9.5
2023-02-23T07:00:19.469Z,9.5
2023-02-23T07:06:16.688Z,9.6
2023-02-23T07:11:49.640Z,9.6
2023-02-23T07:17:32.473Z,9.6
2023-02-23T07:23:07.437Z,9.6
2023-02-23T07:28:42.786Z,9.5
2023-02-23T07:34:18.448Z,9.5
2023-02-23T07:40:09.784Z,8.1
2023-02-23T07:45:46.542Z,7.2
2023-02-23T07:51:24.123Z,7.4
2023-02-23T07:57:11.965Z,7.2
2023-02-23T08:02:55.068Z,7.3
2023-02-23T08:08:52.677Z,7.2
2023-02-23T08:14:26.658Z,6.9
2023-02-23T08:20:01.418Z,6.8
2023-02-23T08:25:36.682Z,6.6
2023-02-23T08:31:11.986Z,6.6
2023-02-23T08:36:48.831Z,6.4
2023-02-23T08:42:26.758Z,6.3
2023-02-23T08:48:01.943Z,6.2
2023-02-23T08:53:37.007Z,6
2023-02-23T08:59:12.304Z,5.9
2023-02-23T09:04:47.629Z,5.7
2023-02-23T09:10:22.491Z,5.7
2023-02-23T09:15:58.546Z,5.2
2023-02-23T09:21:34.975Z,5.1
2023-02-23T09:27:30.984Z,5.2
2023-02-23T09:33:24.685Z,5.2
2023-02-23T09:38:59.401Z,5.2
2023-02-23T09:45:25.992Z,5.3
2023-02-23T09:51:01.129Z,6.3
2023-02-23T09:56:36.287Z,7.8
2023-02-23T10:02:16.901Z,8.2
2023-02-23T10:07:52.484Z,7.2
2023-02-23T10:13:31.510Z,6.8
2023-02-23T10:19:09.299Z,6.7
2023-02-23T10:24:48.231Z,7
2023-02-23T10:30:29.886Z,7.2
2023-02-23T10:36:13.135Z,7
2023-02-23T10:41:58.464Z,7.5
2023-02-23T10:47:38.847Z,7.7
2023-02-23T10:53:14.273Z,8.6
2023-02-23T10:58:49.861Z,8.4
2023-02-23T11:04:47.290Z,8.7
2023-02-23T11:10:36.889Z,8.8
2023-02-23T11:16:38.405Z,9.4
2023-02-23T11:22:17.355Z,9.8
2023-02-23T11:28:02.472Z,10.5
2023-02-23T11:33:39.120Z,8.7
2023-02-23T11:39:16.907Z,8.9
2023-02-23T11:44:52.350Z,10.7
2023-02-23T11:50:27.829Z,10.5
2023-02-23T11:56:14.431Z,9.9
2023-02-23T12:01:58.931Z,10.6
2023-02-23T12:07:34.454Z,11.6
2023-02-23T12:13:33.007Z,10.7
2023-02-23T12:19:08.247Z,10.9
2023-02-23T12:24:51.842Z,11.2
2023-02-23T12:30:46.137Z,11.9
2023-02-23T12:37:16.402Z,11.1
2023-02-23T12:42:56.686Z,10.3
2023-02-23T12:48:42.400Z,12.1
2023-02-23T12:54:25.675Z,10.7
2023-02-23T13:00:01.843Z,11
2023-02-23T13:05:43.533Z,11.9
2023-02-23T13:11:21.465Z,12.6
2023-02-23T13:16:57.526Z,12.3
2023-02-23T13:22:34.037Z,12.9
2023-02-23T13:28:14.887Z,12.3
2023-02-23T13:34:21.088Z,11.4
2023-02-23T13:39:59.997Z,10.5
2023-02-23T13:45:39.133Z,10
2023-02-23T13:51:27.678Z,9.8
2023-02-23T13:57:08.209Z,9
2023-02-23T14:02:43.470Z,8.9
2023-02-23T14:08:20.416Z,8.8
2023-02-23T14:14:07.963Z,8.6
2023-02-23T14:20:24.483Z,8.4
2023-02-23T14:26:06.092Z,7.9
2023-02-23T14:31:46.304Z,7.9
2023-02-23T14:37:24.065Z,7.9
2023-02-23T14:43:08.730Z,7.9
2023-02-23T14:48:43.459Z,7.7
2023-02-23T14:54:19.062Z,7.6
2023-02-23T14:59:55.032Z,7.2
2023-02-23T15:05:30.460Z,7.5
2023-02-23T15:11:15.630Z,7.6
2023-02-23T15:16:56.475Z,7.5
2023-02-23T15:22:36.471Z,7.5
2023-02-23T15:28:14.797Z,7.6
2023-02-23T15:33:51.146Z,7.3
2023-02-23T15:39:29.993Z,7
2023-02-23T15:45:05.856Z,6.7
2023-02-23T15:50:41.907Z,6.6
2023-02-23T15:56:17.270Z,6.7
2023-02-23T16:01:58.972Z,6.7
2023-02-23T16:07:36.063Z,6.6
2023-02-23T16:13:18.655Z,6.5
2023-02-23T16:19:42.916Z,6.4
2023-02-23T16:25:20.823Z,6.3
2023-02-23T16:30:55.893Z,6.1
2023-02-23T16:36:32.236Z,5.1
2023-02-23T16:42:13.983Z,4.6
2023-02-23T16:47:48.960Z,4.7
2023-02-23T16:53:29.134Z,4.7
2023-02-23T16:59:04.681Z,4.5
2023-02-23T17:05:01.993Z,4.3
2023-02-23T17:10:40.871Z,4.3
2023-02-23T17:16:19.716Z,4.1
2023-02-23T17:22:00.295Z,3.9
2023-02-23T17:27:56.635Z,3.8
2023-02-23T17:33:40.284Z,3.6
2023-02-23T17:39:26.177Z,3.4
2023-02-23T17:45:09.190Z,5
2023-02-23T17:50:46.677Z,5.7
2023-02-23T17:56:22.525Z,6
2023-02-23T18:01:57.985Z,6.1
2023-02-23T18:07:36.082Z,6.3
2023-02-23T18:13:12.592Z,6.3
2023-02-23T18:18:48.559Z,6.3
2023-02-23T18:24:24.990Z,6.4
2023-02-23T18:30:00.659Z,6.4
2023-02-23T18:35:36.518Z,6.5
2023-02-23T18:41:12.068Z,6.5
2023-02-23T18:46:47.945Z,6.5
2023-02-23T18:52:23.475Z,6.5
2023-02-23T18:57:59.125Z,6.5
2023-02-23T19:03:34.300Z,6.5
2023-02-23T19:09:14.993Z,6.6
2023-02-23T19:14:50.168Z,6.6
2023-02-23T19:20:25.310Z,6.5
2023-02-23T19:26:00.278Z,6.5
2023-02-23T19:31:36.198Z,6.5
2023-02-23T19:37:14.716Z,6.5
2023-02-23T19:42:50.432Z,6.5
2023-02-23T19:48:26.411Z,6.5
2023-02-23T19:54:01.587Z,6.5
2023-02-23T19:59:36.702Z,6.5
2023-02-23T20:05:12.311Z,6.5
2023-02-23T20:10:48.577Z,6.5
2023-02-23T20:16:23.347Z,6.5
2023-02-23T20:22:00.354Z,6.5
2023-02-23T20:27:36.261Z,6.5
2023-02-23T20:33:14.780Z,6.5
2023-02-23T20:38:49.963Z,6.5
2023-02-23T20:44:25.227Z,6.5
2023-02-23T20:50:00.468Z,6.4
2023-02-23T20:55:35.787Z,6.4
2023-02-23T21:01:10.966Z,6.4
2023-02-23T21:06:46.975Z,6.3
2023-02-23T21:12:22.611Z,6.3
2023-02-23T21:17:58.146Z,6.3
2023-02-23T21:23:34.087Z,6.3
2023-02-23T21:29:09.123Z,6.3
2023-02-23T21:34:44.093Z,6.4
2023-02-23T21:40:18.916Z,6.3
2023-02-23T21:45:54.278Z,6.3
2023-02-23T21:51:29.481Z,6.3
2023-02-23T21:57:05.314Z,6.3
2023-02-23T22:02:40.654Z,6.3
2023-02-23T22:08:16.934Z,6.2
2023-02-23T22:13:51.929Z,6.2
2023-02-23T22:19:30.241Z,6.3
2023-02-23T22:25:05.538Z,6.2
2023-02-23T22:30:40.734Z,6.3
2023-02-23T22:36:15.963Z,6.2
2023-02-23T22:41:51.040Z,6.2
2023-02-23T22:47:26.181Z,6.2
2023-02-23T22:53:02.128Z,6.2
2023-02-23T22:58:37.229Z,6.2
2023-02-23T23:04:13.745Z,6.2
2023-02-23T23:09:53.232Z,6.2
2023-02-23T23:15:29.473Z,6.2
2023-02-23T23:21:04.338Z,6.2
2023-02-23T23:26:39.829Z,6.1
2023-02-23T23:32:15.294Z,6.1
2023-02-23T23:37:53.192Z,6.1
2023-02-23T23:43:28.648Z,6.1
2023-02-23T23:49:04.149Z,6
2023-02-23T23:54:39.601Z,6
